createdAt,value
2018-12-31T00:01:13.469Z,95452.64
2018-12-31T00:03:39.844Z,95454.22
2018-12-31T00:06:06.223Z,95457.22
2018-12-31T00:08:32.632Z,95456.69
2018-12-31T00:10:59.099Z,95464.43
2018-12-31T00:13:25.441Z,95462.77
2018-12-31T00:15:51.767Z,95463.20
2018-12-31T00:18:18.095Z,95467.13
2018-12-31T00:20:44.511Z,95465.08
2018-12-31T00:23:10.853Z,95468.41
2018-12-31T00:25:37.186Z,95473.65
2018-12-31T00:28:03.581Z,95466.35
2018-12-31T00:30:29.882Z,95465.91
2018-12-31T00:32:56.279Z,95468.02
2018-12-31T00:35:22.612Z,95462.52
2018-12-31T00:37:49.003Z,95463.44
2018-12-31T00:40:15.329Z,95462.81
2018-12-31T00:42:41.686Z,95463.94
2018-12-31T00:45:08.011Z,95465.22
2018-12-31T00:47:34.386Z,95459.77
2018-12-31T00:50:00.746Z,95462.81
2018-12-31T00:52:27.104Z,95457.35
2018-12-31T00:54:53.516Z,95455.10
2018-12-31T00:57:19.847Z,95459.52
2018-12-31T00:59:46.311Z,95453.44
2018-12-31T01:02:12.705Z,95454.36
2018-12-31T01:04:39.180Z,95456.97
2018-12-31T01:07:05.511Z,95454.02
2018-12-31T01:09:31.850Z,95450.64
2018-12-31T01:11:58.181Z,95442.33
2018-12-31T01:14:24.517Z,95444.88
2018-12-31T01:16:50.862Z,95437.23
2018-12-31T01:19:17.259Z,95436.84
2018-12-31T01:21:43.589Z,95437.04
2018-12-31T01:24:09.979Z,95430.97
2018-12-31T01:26:36.355Z,95435.56
2018-12-31T01:29:02.809Z,95430.08
2018-12-31T01:31:29.132Z,95432.72
2018-12-31T01:33:55.587Z,95428.11
2018-12-31T01:36:21.980Z,95423.84
2018-12-31T01:38:48.332Z,95420.31
2018-12-31T01:41:14.715Z,95418.20
2018-12-31T01:43:41.095Z,95416.19
2018-12-31T01:46:07.460Z,95414.52
2018-12-31T01:48:33.826Z,95415.89
2018-12-31T01:51:00.183Z,95417.16
2018-12-31T01:53:26.633Z,95407.49
2018-12-31T01:55:52.934Z,95407.84
2018-12-31T01:58:19.277Z,95405.05
2018-12-31T02:00:45.664Z,95399.84
2018-12-31T02:03:12.079Z,95402.00
2018-12-31T02:05:38.442Z,95399.89
2018-12-31T02:08:04.861Z,95400.64
2018-12-31T02:10:31.137Z,95394.05
2018-12-31T02:12:57.493Z,95392.83
2018-12-31T02:15:23.820Z,95394.05
2018-12-31T02:17:50.159Z,95393.66
2018-12-31T02:20:16.539Z,95392.30
2018-12-31T02:22:42.943Z,95391.55
2018-12-31T02:25:09.241Z,95387.28
2018-12-31T02:27:35.611Z,95384.29
2018-12-31T02:30:01.881Z,95382.72
2018-12-31T02:32:28.226Z,95378.50
2018-12-31T02:34:54.547Z,95382.38
2018-12-31T02:37:20.903Z,95376.70
2018-12-31T02:39:47.257Z,95377.97
2018-12-31T02:42:13.635Z,95374.59
2018-12-31T02:44:40.115Z,95371.14
2018-12-31T02:47:06.526Z,95372.52
2018-12-31T02:49:32.859Z,95374.28
2018-12-31T02:51:59.189Z,95371.34
2018-12-31T02:54:25.530Z,95371.23
2018-12-31T02:56:51.880Z,95370.55
2018-12-31T02:59:18.216Z,95368.05
2018-12-31T03:01:44.561Z,95371.73
2018-12-31T03:04:10.978Z,95370.91
2018-12-31T03:06:37.382Z,95367.67
2018-12-31T03:09:03.714Z,95363.40
2018-12-31T03:11:30.043Z,95359.72
2018-12-31T03:13:56.392Z,95362.66
2018-12-31T03:16:22.710Z,95363.48
2018-12-31T03:18:49.091Z,95361.44
2018-12-31T03:21:15.424Z,95356.88
2018-12-31T03:23:41.760Z,95358.67
2018-12-31T03:26:08.093Z,95360.75
2018-12-31T03:28:34.481Z,95361.53
2018-12-31T03:31:00.812Z,95360.75
2018-12-31T03:33:27.143Z,95359.95
2018-12-31T03:35:53.539Z,95354.31
2018-12-31T03:38:19.807Z,95359.56
2018-12-31T03:40:46.139Z,95354.02
2018-12-31T03:43:12.465Z,95364.28
2018-12-31T03:45:38.869Z,95364.66
2018-12-31T03:48:05.180Z,95369.91
2018-12-31T03:50:31.584Z,95368.63
2018-12-31T03:52:57.913Z,95371.57
2018-12-31T03:55:24.240Z,95377.17
2018-12-31T03:57:50.564Z,95378.45
2018-12-31T04:00:16.900Z,95376.28
2018-12-31T04:02:43.270Z,95380.11
2018-12-31T04:05:09.590Z,95377.17
2018-12-31T04:07:35.922Z,95382.80
2018-12-31T04:10:02.323Z,95382.36
2018-12-31T04:12:28.654Z,95378.59
2018-12-31T04:14:55.007Z,95386.69
2018-12-31T04:17:21.355Z,95379.48
2018-12-31T04:19:47.730Z,95383.99
2018-12-31T04:22:14.064Z,95388.59
2018-12-31T04:24:40.436Z,95386.34
2018-12-31T04:27:06.776Z,95386.25
2018-12-31T04:29:33.134Z,95392.05
2018-12-31T04:31:59.464Z,95392.05
2018-12-31T04:34:25.868Z,95396.25
2018-12-31T04:36:52.243Z,95397.14
2018-12-31T04:39:18.569Z,95396.64
2018-12-31T04:41:45.016Z,95402.88
2018-12-31T04:44:11.328Z,95405.48
2018-12-31T04:46:37.704Z,95404.66
2018-12-31T04:49:04.048Z,95401.16
2018-12-31T04:51:30.433Z,95406.26
2018-12-31T04:53:56.765Z,95406.26
2018-12-31T04:56:23.182Z,95407.39
2018-12-31T04:58:49.523Z,95407.45
2018-12-31T05:01:15.853Z,95410.83
2018-12-31T05:03:42.264Z,95419.17
2018-12-31T05:06:08.590Z,95415.48
2018-12-31T05:08:34.959Z,95417.16
2018-12-31T05:11:01.286Z,95418.42
2018-12-31T05:13:27.689Z,95420.98
2018-12-31T05:15:54.079Z,95418.78
2018-12-31T05:18:20.429Z,95428.09
2018-12-31T05:20:46.831Z,95430.70
2018-12-31T05:23:13.189Z,95427.80
2018-12-31T05:25:39.528Z,95422.16
2018-12-31T05:28:05.937Z,95426.08
2018-12-31T05:30:32.222Z,95429.08
2018-12-31T05:32:58.562Z,95423.00
2018-12-31T05:35:25.131Z,95426.08
2018-12-31T05:37:51.425Z,95418.04
2018-12-31T05:40:17.857Z,95422.31
2018-12-31T05:42:44.245Z,95425.55
2018-12-31T05:45:10.669Z,95428.93
2018-12-31T05:47:36.987Z,95432.37
2018-12-31T05:50:03.384Z,95430.27
2018-12-31T05:52:29.713Z,95427.71
2018-12-31T05:54:56.045Z,95431.92
2018-12-31T05:57:22.395Z,95437.41
2018-12-31T05:59:48.726Z,95439.13
2018-12-31T06:02:15.204Z,95442.52
2018-12-31T06:04:41.540Z,95447.98
2018-12-31T06:07:07.893Z,95444.98
2018-12-31T06:09:34.235Z,95443.41
2018-12-31T06:12:00.579Z,95444.23
2018-12-31T06:14:26.927Z,95444.92
2018-12-31T06:16:53.257Z,95449.20
2018-12-31T06:19:19.658Z,95453.08
2018-12-31T06:21:45.989Z,95455.12
2018-12-31T06:24:12.350Z,95449.25
2018-12-31T06:26:38.689Z,95450.86
2018-12-31T06:29:05.077Z,95459.02
2018-12-31T06:31:31.413Z,95458.18
2018-12-31T06:33:57.750Z,95458.56
2018-12-31T06:36:24.103Z,95459.84
2018-12-31T06:38:50.488Z,95459.90
2018-12-31T06:41:16.839Z,95465.78
2018-12-31T06:43:43.175Z,95460.73
2018-12-31T06:46:09.547Z,95460.38
2018-12-31T06:48:35.885Z,95461.13
2018-12-31T06:51:02.276Z,95459.45
2018-12-31T06:53:28.628Z,95460.73
2018-12-31T06:55:54.959Z,95459.90
2018-12-31T06:58:21.312Z,95462.25
2018-12-31T07:00:47.664Z,95460.98
2018-12-31T07:03:14.035Z,95462.92
2018-12-31T07:05:40.339Z,95463.72
2018-12-31T07:08:06.669Z,95464.70
2018-12-31T07:10:33.070Z,95460.38
2018-12-31T07:12:59.392Z,95467.50
2018-12-31T07:15:25.763Z,95464.95
2018-12-31T07:17:52.083Z,95465.78
2018-12-31T07:20:18.427Z,95464.55
2018-12-31T07:22:44.731Z,95462.01
2018-12-31T07:25:11.061Z,95460.73
2018-12-31T07:27:37.392Z,95463.22
2018-12-31T07:30:03.780Z,95461.86
2018-12-31T07:32:30.110Z,95467.89
2018-12-31T07:34:56.451Z,95463.14
2018-12-31T07:37:22.830Z,95463.53
2018-12-31T07:39:49.201Z,95465.19
2018-12-31T07:42:15.477Z,95466.97
2018-12-31T07:44:41.838Z,95466.47
2018-12-31T07:47:08.136Z,95464.22
2018-12-31T07:49:34.489Z,95464.91
2018-12-31T07:52:00.865Z,95462.27
2018-12-31T07:54:27.203Z,95459.57
2018-12-31T07:56:53.531Z,95462.31
2018-12-31T07:59:19.898Z,95464.13
2018-12-31T08:01:46.182Z,95466.84
2018-12-31T08:04:12.556Z,95467.08
2018-12-31T08:06:38.918Z,95470.32
2018-12-31T08:09:05.213Z,95475.05
2018-12-31T08:11:31.543Z,95473.61
2018-12-31T08:13:57.871Z,95467.98
2018-12-31T08:16:24.199Z,95471.27
2018-12-31T08:18:50.523Z,95474.68
2018-12-31T08:21:16.860Z,95473.44
2018-12-31T08:23:43.246Z,95473.00
2018-12-31T08:26:09.560Z,95475.09
2018-12-31T08:28:35.883Z,95471.84
2018-12-31T08:31:02.262Z,95476.57
2018-12-31T08:33:28.590Z,95478.14
2018-12-31T08:35:54.947Z,95478.52
2018-12-31T08:38:21.302Z,95483.77
2018-12-31T08:40:47.711Z,95477.69
2018-12-31T08:43:13.999Z,95478.88
2018-12-31T08:45:40.329Z,95478.77
2018-12-31T08:48:06.653Z,95480.72
2018-12-31T08:50:32.981Z,95477.38
2018-12-31T08:52:59.395Z,95480.06
2018-12-31T08:55:25.751Z,95480.18
2018-12-31T08:57:52.078Z,95479.78
2018-12-31T09:00:18.504Z,95480.52
2018-12-31T09:02:44.883Z,95475.99
2018-12-31T09:05:11.267Z,95472.48
2018-12-31T09:07:37.595Z,95468.70
2018-12-31T09:10:04.057Z,95468.19
2018-12-31T09:12:30.407Z,95465.91
2018-12-31T09:14:56.744Z,95460.72
2018-12-31T09:17:23.114Z,95459.79
2018-12-31T09:19:49.503Z,95459.83
2018-12-31T09:22:15.864Z,95458.93
2018-12-31T09:24:44.704Z,95465.52
2018-12-31T09:27:08.627Z,95453.19
2018-12-31T09:29:35.003Z,95455.16
2018-12-31T09:32:01.408Z,95454.44
2018-12-31T09:34:27.787Z,95452.11
2018-12-31T09:36:54.281Z,95446.81
2018-12-31T09:39:20.537Z,95443.49
2018-12-31T09:41:46.940Z,95446.27
2018-12-31T09:44:13.271Z,95445.63
2018-12-31T09:46:39.633Z,95444.18
2018-12-31T09:49:05.969Z,95445.08
2018-12-31T09:51:32.342Z,95445.73
2018-12-31T09:53:58.678Z,95438.05
2018-12-31T09:56:25.068Z,95437.34
2018-12-31T09:58:51.476Z,95435.96
2018-12-31T10:01:17.887Z,95434.68
2018-12-31T10:03:44.239Z,95436.34
2018-12-31T10:06:10.577Z,95431.77
2018-12-31T10:08:36.964Z,95429.48
2018-12-31T10:11:03.283Z,95425.11
2018-12-31T10:13:29.661Z,95429.05
2018-12-31T10:15:56.035Z,95428.41
2018-12-31T10:18:22.423Z,95424.56
2018-12-31T10:20:48.779Z,95424.39
2018-12-31T10:23:15.165Z,95420.73
2018-12-31T10:25:41.541Z,95416.78
2018-12-31T10:28:07.875Z,95414.70
2018-12-31T10:30:34.257Z,95413.25
2018-12-31T10:33:00.598Z,95410.38
2018-12-31T10:35:26.926Z,95412.13
2018-12-31T10:37:53.338Z,95410.96
2018-12-31T10:40:19.677Z,95405.73
2018-12-31T10:42:46.073Z,95403.36
2018-12-31T10:45:14.616Z,95394.83
2018-12-31T10:47:40.971Z,95400.91
2018-12-31T10:50:07.481Z,95400.16
2018-12-31T10:52:33.926Z,95400.53
2018-12-31T10:55:00.286Z,95393.78
2018-12-31T10:57:26.641Z,95394.12
2018-12-31T10:59:52.971Z,95394.77
2018-12-31T11:02:19.360Z,95395.97
2018-12-31T11:04:45.698Z,95394.05
2018-12-31T11:07:12.075Z,95387.07
2018-12-31T11:09:38.410Z,95383.60
2018-12-31T11:12:04.805Z,95380.47
2018-12-31T11:14:31.168Z,95383.11
2018-12-31T11:16:57.522Z,95375.72
2018-12-31T11:19:23.924Z,95368.28
2018-12-31T11:21:50.338Z,95375.07
2018-12-31T11:24:16.668Z,95367.64
2018-12-31T11:26:43.029Z,95365.08
2018-12-31T11:29:09.434Z,95369.37
2018-12-31T11:31:35.791Z,95362.05
2018-12-31T11:34:02.263Z,95366.87
2018-12-31T11:36:28.646Z,95370.53
2018-12-31T11:38:55.030Z,95365.86
2018-12-31T11:41:21.359Z,95364.04
2018-12-31T11:43:47.742Z,95366.87
2018-12-31T11:46:14.080Z,95363.84
2018-12-31T11:48:40.502Z,95356.98
2018-12-31T11:51:06.840Z,95363.66
2018-12-31T11:53:33.215Z,95361.72
2018-12-31T11:55:59.547Z,95359.16
2018-12-31T11:58:25.884Z,95358.13
2018-12-31T12:00:52.289Z,95343.31
2018-12-31T12:03:18.736Z,95358.77
2018-12-31T12:05:45.135Z,95369.03
2018-12-31T12:08:11.567Z,95364.62
2018-12-31T12:10:37.898Z,95362.15
2018-12-31T12:13:04.274Z,95366.08
2018-12-31T12:15:30.663Z,95367.80
2018-12-31T12:17:57.017Z,95361.13
2018-12-31T12:20:23.468Z,95371.73
2018-12-31T12:22:49.813Z,95372.94
2018-12-31T12:25:16.215Z,95370.00
2018-12-31T12:27:42.589Z,95373.02
2018-12-31T12:30:08.973Z,95375.05
2018-12-31T12:32:35.300Z,95377.50
2018-12-31T12:35:01.711Z,95381.80
2018-12-31T12:37:28.037Z,95381.28
2018-12-31T12:39:54.368Z,95384.57
2018-12-31T12:42:20.855Z,95376.39
2018-12-31T12:44:47.233Z,95381.17
2018-12-31T12:47:13.615Z,95368.51
2018-12-31T12:49:39.940Z,95370.05
2018-12-31T12:52:06.278Z,95373.45
2018-12-31T12:54:32.731Z,95374.28
2018-12-31T12:56:59.009Z,95380.95
2018-12-31T12:59:25.457Z,95372.86
2018-12-31T13:01:51.762Z,95378.77
2018-12-31T13:04:18.153Z,95382.64
2018-12-31T13:06:44.544Z,95374.91
2018-12-31T13:09:10.953Z,95385.24
2018-12-31T13:11:37.286Z,95384.41
2018-12-31T13:14:03.666Z,95389.55
2018-12-31T13:16:29.974Z,95392.49
2018-12-31T13:18:56.303Z,95395.77
2018-12-31T13:21:22.673Z,95391.38
2018-12-31T13:23:49.003Z,95389.98
2018-12-31T13:26:15.404Z,95389.16
2018-12-31T13:28:41.794Z,95389.92
2018-12-31T13:31:08.122Z,95394.03
2018-12-31T13:33:34.498Z,95393.95
2018-12-31T13:36:00.822Z,95398.14
2018-12-31T13:38:27.159Z,95401.28
2018-12-31T13:40:53.497Z,95400.45
2018-12-31T13:43:19.826Z,95397.63
2018-12-31T13:45:46.208Z,95400.72
2018-12-31T13:48:12.542Z,95398.46
2018-12-31T13:50:38.914Z,95408.99
2018-12-31T13:53:05.263Z,95400.17
2018-12-31T13:55:31.646Z,95401.46
2018-12-31T13:57:57.973Z,95404.03
2018-12-31T14:00:24.420Z,95407.77
2018-12-31T14:02:50.759Z,95404.37
2018-12-31T14:05:17.114Z,95405.20
2018-12-31T14:07:43.446Z,95405.83
2018-12-31T14:10:09.775Z,95408.23
2018-12-31T14:12:36.160Z,95405.57
2018-12-31T14:15:02.518Z,95407.77
2018-12-31T14:17:28.962Z,95413.36
2018-12-31T14:19:55.327Z,95415.73
2018-12-31T14:22:21.685Z,95405.57
2018-12-31T14:24:48.143Z,95411.88
2018-12-31T14:27:14.573Z,95413.84
2018-12-31T14:29:40.985Z,95419.45
2018-12-31T14:32:07.315Z,95420.36
2018-12-31T14:34:33.687Z,95416.77
2018-12-31T14:37:00.107Z,95416.56
2018-12-31T14:39:26.437Z,95412.25
2018-12-31T14:41:52.758Z,95416.77
2018-12-31T14:44:19.170Z,95411.63
2018-12-31T14:46:45.491Z,95417.77
2018-12-31T14:49:11.858Z,95414.45
2018-12-31T14:51:38.189Z,95416.48
2018-12-31T14:54:04.570Z,95422.08
2018-12-31T14:56:30.912Z,95423.81
2018-12-31T14:58:57.332Z,95428.87
2018-12-31T15:01:23.692Z,95426.30
2018-12-31T15:03:50.058Z,95428.13
2018-12-31T15:06:16.392Z,95433.81
2018-12-31T15:08:42.783Z,95435.30
2018-12-31T15:11:09.135Z,95441.34
2018-12-31T15:13:35.542Z,95441.72
2018-12-31T15:16:01.821Z,95445.45
2018-12-31T15:18:28.176Z,95444.17
2018-12-31T15:20:54.508Z,95444.17
2018-12-31T15:23:20.837Z,95444.92
2018-12-31T15:25:47.244Z,95443.72
2018-12-31T15:28:13.770Z,95445.38
2018-12-31T15:30:40.061Z,95447.11
2018-12-31T15:33:06.452Z,95453.26
2018-12-31T15:35:32.805Z,95455.52
2018-12-31T15:37:59.209Z,95460.48
2018-12-31T15:40:25.587Z,95460.86
2018-12-31T15:42:51.918Z,95460.48
2018-12-31T15:45:18.304Z,95463.53
2018-12-31T15:47:44.641Z,95464.82
2018-12-31T15:50:11.035Z,95464.82
2018-12-31T15:52:37.369Z,95471.24
2018-12-31T15:55:03.702Z,95468.56
2018-12-31T15:57:30.055Z,95473.24
2018-12-31T15:59:56.449Z,95476.73
2018-12-31T16:02:22.766Z,95483.52
2018-12-31T16:04:49.097Z,95489.83
2018-12-31T16:07:15.497Z,95486.09
2018-12-31T16:09:41.860Z,95489.52
2018-12-31T16:12:08.191Z,95491.49
2018-12-31T16:14:34.579Z,95491.61
2018-12-31T16:17:00.922Z,95499.13
2018-12-31T16:19:27.319Z,95497.84
2018-12-31T16:21:53.639Z,95500.75
2018-12-31T16:24:19.969Z,95500.67
2018-12-31T16:26:46.307Z,95507.35
2018-12-31T16:29:12.633Z,95510.75
2018-12-31T16:31:39.034Z,95512.41
2018-12-31T16:34:05.489Z,95512.86
2018-12-31T16:36:31.821Z,95516.52
2018-12-31T16:38:58.155Z,95514.03
2018-12-31T16:41:24.485Z,95520.37
2018-12-31T16:43:50.900Z,95520.00
2018-12-31T16:46:17.271Z,95526.61
2018-12-31T16:48:43.676Z,95537.08
2018-12-31T16:51:10.056Z,95532.66
2018-12-31T16:53:36.397Z,95537.80
2018-12-31T16:56:02.734Z,95542.03
2018-12-31T16:58:29.068Z,95542.48
2018-12-31T17:00:55.435Z,95541.13
2018-12-31T17:03:21.821Z,95543.40
2018-12-31T17:05:48.157Z,95546.26
2018-12-31T17:08:14.532Z,95548.83
2018-12-31T17:10:40.868Z,95549.63
2018-12-31T17:13:07.251Z,95555.52
2018-12-31T17:15:33.582Z,95553.48
2018-12-31T17:17:59.963Z,95555.45
2018-12-31T17:20:26.316Z,95555.72
2018-12-31T17:22:52.645Z,95564.70
2018-12-31T17:25:19.009Z,95566.64
2018-12-31T17:27:45.467Z,95562.67
2018-12-31T17:30:11.843Z,95567.18
2018-12-31T17:32:38.229Z,95571.15
2018-12-31T17:35:04.555Z,95570.05
2018-12-31T17:37:30.944Z,95574.45
2018-12-31T17:39:57.327Z,95578.98
2018-12-31T17:42:23.649Z,95574.83
2018-12-31T17:44:50.022Z,95584.02
2018-12-31T17:47:16.355Z,95587.87
2018-12-31T17:49:42.755Z,95583.22
2018-12-31T17:52:09.094Z,95588.17
2018-12-31T17:54:35.430Z,95590.18
2018-12-31T17:57:01.773Z,95593.77
2018-12-31T17:59:28.086Z,95591.47
2018-12-31T18:01:54.411Z,95589.27
2018-12-31T18:04:20.783Z,95584.25
2018-12-31T18:06:47.108Z,95588.17
2018-12-31T18:09:13.498Z,95582.59
2018-12-31T18:11:39.837Z,95581.48
2018-12-31T18:14:06.205Z,95585.07
2018-12-31T18:16:32.539Z,95587.37
2018-12-31T18:18:58.917Z,95586.09
2018-12-31T18:21:25.248Z,95589.00
2018-12-31T18:23:51.583Z,95594.70
2018-12-31T18:26:18.018Z,95604.14
2018-12-31T18:28:44.326Z,95599.61
2018-12-31T18:31:10.671Z,95602.41
2018-12-31T18:33:37.012Z,95610.07
2018-12-31T18:36:03.339Z,95604.67
2018-12-31T18:38:29.670Z,95598.62
2018-12-31T18:40:56.079Z,95603.38
2018-12-31T18:43:22.398Z,95604.29
2018-12-31T18:45:48.733Z,95600.35
2018-12-31T18:48:15.069Z,95594.13
2018-12-31T18:50:41.467Z,95595.11
2018-12-31T18:53:07.828Z,95597.59
2018-12-31T18:55:34.154Z,95592.84
2018-12-31T18:58:00.536Z,95596.04
2018-12-31T19:00:26.873Z,95601.81
2018-12-31T19:02:53.210Z,95600.98
2018-12-31T19:05:19.542Z,95599.24
2018-12-31T19:07:48.407Z,95604.48
2018-12-31T19:10:14.730Z,95608.86
2018-12-31T19:12:41.127Z,95609.42
2018-12-31T19:15:07.482Z,95611.23
2018-12-31T19:17:33.809Z,95616.75
2018-12-31T19:20:00.163Z,95613.63
2018-12-31T19:22:26.552Z,95612.88
2018-12-31T19:24:52.882Z,95609.66
2018-12-31T19:27:19.252Z,95608.20
2018-12-31T19:29:45.763Z,95599.97
2018-12-31T19:32:12.134Z,95599.05
2018-12-31T19:34:38.493Z,95601.96
2018-12-31T19:37:04.835Z,95607.91
2018-12-31T19:39:31.174Z,95612.05
2018-12-31T19:41:57.504Z,95619.76
2018-12-31T19:44:23.904Z,95619.58
2018-12-31T19:46:50.236Z,95619.83
2018-12-31T19:49:16.596Z,95622.83
2018-12-31T19:51:42.914Z,95628.54
2018-12-31T19:54:09.314Z,95628.34
2018-12-31T19:56:35.658Z,95633.85
2018-12-31T19:59:01.990Z,95630.91
2018-12-31T20:01:28.319Z,95628.97
2018-12-31T20:03:54.650Z,95630.42
2018-12-31T20:06:21.114Z,95637.85
2018-12-31T20:08:47.393Z,95631.19
2018-12-31T20:11:13.731Z,95626.50
2018-12-31T20:13:40.075Z,95631.44
2018-12-31T20:16:06.470Z,95622.84
2018-12-31T20:18:32.795Z,95623.94
2018-12-31T20:20:59.175Z,95625.12
2018-12-31T20:23:25.506Z,95619.52
2018-12-31T20:25:51.901Z,95625.20
2018-12-31T20:28:18.250Z,95623.53
2018-12-31T20:30:44.572Z,95621.17
2018-12-31T20:33:10.930Z,95621.62
2018-12-31T20:35:37.257Z,95623.81
2018-12-31T20:38:03.643Z,95623.36
2018-12-31T20:40:30.001Z,95625.65
2018-12-31T20:42:56.344Z,95634.88
2018-12-31T20:45:22.744Z,95630.69
2018-12-31T20:47:49.066Z,95632.13
2018-12-31T20:50:15.399Z,95634.36
2018-12-31T20:52:41.737Z,95634.70
2018-12-31T20:55:08.065Z,95634.08
2018-12-31T20:57:34.447Z,95625.17
2018-12-31T21:00:00.785Z,95632.03
2018-12-31T21:02:27.109Z,95624.72
2018-12-31T21:04:53.442Z,95628.29
2018-12-31T21:07:19.800Z,95626.63
2018-12-31T21:09:46.199Z,95623.03
2018-12-31T21:12:12.532Z,95631.38
2018-12-31T21:14:38.857Z,95624.80
2018-12-31T21:17:05.262Z,95622.50
2018-12-31T21:19:31.650Z,95620.84
2018-12-31T21:21:57.975Z,95627.25
2018-12-31T21:24:24.305Z,95629.64
2018-12-31T21:26:50.655Z,95631.69
2018-12-31T21:29:17.042Z,95635.16
2018-12-31T21:31:43.376Z,95628.64
2018-12-31T21:34:09.727Z,95630.72
2018-12-31T21:36:36.088Z,95629.16
2018-12-31T21:39:02.432Z,95630.38
2018-12-31T21:41:28.771Z,95628.64
2018-12-31T21:43:55.126Z,95629.48
2018-12-31T21:46:21.455Z,95629.09
2018-12-31T21:48:47.780Z,95629.54
2018-12-31T21:51:14.184Z,95634.29
2018-12-31T21:53:40.553Z,95633.15
2018-12-31T21:56:06.944Z,95638.00
2018-12-31T21:58:33.294Z,95642.68
2018-12-31T22:00:59.643Z,95632.70
2018-12-31T22:03:25.994Z,95630.20
2018-12-31T22:05:52.384Z,95638.55
2018-12-31T22:08:18.758Z,95641.84
2018-12-31T22:10:45.089Z,95644.76
2018-12-31T22:13:11.532Z,95647.05
2018-12-31T22:15:37.867Z,95654.74
2018-12-31T22:18:04.294Z,95659.21
2018-12-31T22:20:30.651Z,95659.69
2018-12-31T22:22:57.014Z,95661.77
2018-12-31T22:25:23.319Z,95660.70
2018-12-31T22:27:49.650Z,95665.83
2018-12-31T22:30:15.981Z,95664.52
2018-12-31T22:32:42.316Z,95658.41
2018-12-31T22:35:08.701Z,95662.78
2018-12-31T22:37:35.033Z,95668.29
2018-12-31T22:40:01.364Z,95662.70
2018-12-31T22:42:27.694Z,95667.91
2018-12-31T22:44:54.033Z,95666.17
2018-12-31T22:47:20.467Z,95672.75
2018-12-31T22:49:46.767Z,95671.30
2018-12-31T22:52:13.092Z,95671.19
2018-12-31T22:54:39.427Z,95670.57
2018-12-31T22:57:05.792Z,95673.38
2018-12-31T22:59:32.087Z,95672.37
2018-12-31T23:01:58.502Z,95665.69
2018-12-31T23:04:24.867Z,95670.64
2018-12-31T23:06:51.230Z,95666.72
2018-12-31T23:09:17.524Z,95673.71
2018-12-31T23:11:43.856Z,95671.16
2018-12-31T23:14:10.188Z,95675.32
2018-12-31T23:16:36.571Z,95673.92
2018-12-31T23:19:02.901Z,95679.50
2018-12-31T23:21:29.263Z,95678.46
2018-12-31T23:23:55.608Z,95682.02
2018-12-31T23:26:22.059Z,95685.08
2018-12-31T23:28:52.530Z,95684.63
2018-12-31T23:31:14.918Z,95687.08
2018-12-31T23:33:41.248Z,95688.92
2018-12-31T23:36:07.578Z,95690.38
2018-12-31T23:38:33.921Z,95693.16
2018-12-31T23:41:00.272Z,95690.66
2018-12-31T23:43:27.411Z,95691.45
2018-12-31T23:45:52.956Z,95694.02
2018-12-31T23:48:19.286Z,95699.35
2018-12-31T23:50:45.627Z,95698.30
2018-12-31T23:53:11.958Z,95706.76
2018-12-31T23:55:38.291Z,95704.48
2018-12-31T23:58:04.636Z,95700.63
